Home   Weather   USA   Duluth   Past weeks
Flag for USA

Past Weather in Duluth, Minnesota, USA — Yesterday and Last 2 Weeks

Currently: 28 °F. Chilly. (Weather station: Sky Harbor Airport, USA). See more current weather

Past Weather in Duluth — Graph

°F

Duluth Temperature Yesterday

Maximum temperature yesterday: 23 °F (at 2:15 pm)
Minimum temperature yesterday: 9 °F (at 11:35 pm)
Average temperature yesterday: 18 °F

High & Low Weather Summary for the Past Weeks

 TemperatureHumidityPressure
High30 °F (Jan 23, 11:15 pm)100% (Jan 25, 5:35 am)30.65 "Hg (Jan 25, 5:35 am)
Low-17 °F (Feb 3, 4:15 am)41% (Feb 3, 4:15 pm)29.36 "Hg (Jan 27, 5:55 am)
Average9 °F70%30.08 "Hg
* Reported Jan 22 1:15 pm — Feb 6 1:35 pm, Duluth. Weather by CustomWeather, © 2023

Note: Actual official high and low records may vary slightly from our data, if they occured in-between our weather recording intervals... More about our weather records

Duluth Weather History for the Previous 24 Hours

Scroll right to see more
 ConditionsComfort  
Time TempWeatherWind HumidityBarometerVisibility
1:35 pm
Mon, Feb 6
28 °FChilly.12 mph80%29.82 "Hg10 mi
1:15 pm27 °FChilly.10 mph80%29.84 "Hg10 mi
12:55 pm27 °FChilly.9 mph80%29.85 "Hg10 mi
12:15 pm27 °FChilly.8 mph80%29.88 "Hg10 mi
11:55 am27 °FChilly.8 mph74%29.90 "Hg10 mi
11:35 am25 °FCold.7 mph80%29.91 "Hg10 mi
11:15 am25 °FCold.9 mph80%29.93 "Hg10 mi
10:55 am23 °FCold.7 mph80%29.94 "Hg10 mi
10:15 am21 °FCold.5 mph80%29.95 "Hg10 mi
9:55 am21 °FCold.No wind80%29.97 "Hg10 mi
9:35 am16 °FCold.No wind86%29.97 "Hg10 mi
9:15 am16 °FCold.No wind86%29.98 "Hg9 mi
8:15 am10 °FIce fog.No wind92%30.00 "Hg5 mi
7:55 am9 °FIce fog.No wind92%30.01 "Hg6 mi
7:35 am9 °FIce fog.6 mph85%30.02 "Hg6 mi
7:15 am9 °FFrigid.3 mph85%30.01 "Hg9 mi
6:55 am9 °FFrigid.5 mph85%30.01 "Hg9 mi
6:15 am7 °FFrigid.No wind92%30.02 "Hg10 mi
5:55 am7 °FFrigid.No wind85%30.03 "Hg10 mi
5:35 am7 °FFrigid.3 mph85%30.04 "Hg9 mi
5:15 am7 °FFrigid.No wind85%30.06 "Hg9 mi
4:55 am7 °FFrigid.5 mph85%30.07 "Hg10 mi
4:35 am7 °FFrigid.No wind85%30.07 "Hg10 mi
4:15 am7 °FFrigid.No wind85%30.08 "Hg10 mi
3:55 am7 °FFrigid.No wind85%30.08 "Hg9 mi
3:35 am7 °FFrigid.No wind85%30.09 "Hg10 mi
3:15 am7 °FFrigid.No wind85%30.10 "Hg10 mi
2:35 am7 °FFrigid.No wind92%30.10 "Hg10 mi
2:15 am7 °FFrigid.No wind92%30.10 "Hg10 mi
1:35 am9 °FFrigid.No wind92%30.11 "Hg9 mi
1:15 am9 °FFrigid.No wind85%30.11 "Hg10 mi
12:55 am9 °FFrigid.3 mph85%30.12 "Hg10 mi
12:15 am9 °FFrigid.6 mph92%30.13 "Hg10 mi
11:55 pm
Sun, Feb 5
10 °FCold.No wind92%30.13 "Hg10 mi
11:35 pm9 °FFrigid.3 mph92%30.12 "Hg10 mi
11:15 pm10 °FCold.No wind85%30.11 "Hg10 mi
10:55 pm12 °FCold.No wind85%30.11 "Hg10 mi
10:35 pm10 °FCold.No wind85%30.11 "Hg10 mi
10:15 pm10 °FCold.5 mph85%30.11 "Hg10 mi
9:55 pm12 °FCold.No wind85%30.11 "Hg10 mi
9:35 pm14 °FCold.No wind85%30.11 "Hg10 mi
9:15 pm14 °FCold.No wind85%30.12 "Hg10 mi
8:55 pm14 °FCold.No wind85%30.11 "Hg10 mi
8:35 pm16 °FCold.No wind79%30.11 "Hg10 mi
8:15 pm16 °FCold.No wind73%30.11 "Hg10 mi
7:55 pm21 °FCold.5 mph63%30.11 "Hg10 mi
7:35 pm18 °FCold.No wind73%30.11 "Hg10 mi
7:15 pm16 °FCold.5 mph79%30.10 "Hg10 mi
5:35 pm21 °FCold.3 mph63%30.06 "Hg10 mi
5:15 pm21 °FCold.5 mph63%30.06 "Hg10 mi
4:55 pm21 °FCold.7 mph63%30.06 "Hg10 mi
4:15 pm23 °FCold.8 mph63%30.05 "Hg10 mi
3:55 pm23 °FCold.5 mph63%30.04 "Hg10 mi
3:35 pm23 °FCold.6 mph58%30.03 "Hg10 mi
3:15 pm23 °FCold.5 mph58%30.03 "Hg10 mi
2:55 pm23 °FCold.No wind58%30.02 "Hg10 mi
2:35 pm23 °FCold.3 mph58%30.03 "Hg10 mi
2:15 pm23 °FCold.5 mph58%30.02 "Hg10 mi
Weather by CustomWeather, © 2023

See weather overview